Time;durP1;ratioP1;P1;durP2;ratioP2;P2;SDS_P1;SDS_P2;PMS_P1;PMS_P2;Temp;Humidity;BMP_temperature;BMP_pressure;BME280_temperature;BME280_humidity;BME280_pressure;Samples;Min_cycle;Max_cycle;Signal;HPM_P1;HPM_P2
2021/08/02 00:00:13;;;;;;;5.10;2.88;;;15.40;99.90;;;;;;5052703;28;20059;-43
2021/08/02 00:03:10;;;;;;;3.78;2.20;;;15.40;99.90;;;;;;5049940;28;20021;-43
2021/08/02 00:05:45;;;;;;;4.22;2.00;;;15.30;99.90;;;;;;5041516;28;20033;-42
2021/08/02 00:08:13;;;;;;;4.45;1.90;;;15.30;99.90;;;;;;5048253;28;20039;-43
2021/08/02 00:10:39;;;;;;;5.68;2.10;;;15.30;99.90;;;;;;5050549;28;20075;-42
2021/08/02 00:13:09;;;;;;;4.50;2.08;;;15.30;99.90;;;;;;5051498;28;20017;-43
2021/08/02 00:15:35;;;;;;;2.30;1.90;;;15.30;99.90;;;;;;5050615;28;20142;-42
2021/08/02 00:18:02;;;;;;;3.83;2.03;;;15.20;99.90;;;;;;5051252;28;20501;-43
2021/08/02 00:20:32;;;;;;;2.85;1.70;;;15.20;99.90;;;;;;5050367;28;20492;-42
2021/08/02 00:23:00;;;;;;;4.53;2.10;;;15.20;99.90;;;;;;5051416;28;20354;-42
2021/08/02 00:25:26;;;;;;;4.45;2.10;;;15.20;99.90;;;;;;5050194;28;20017;-41
2021/08/02 00:27:54;;;;;;;3.65;1.95;;;15.20;99.90;;;;;;5051739;28;20056;-41
2021/08/02 00:30:20;;;;;;;3.45;2.20;;;15.20;99.90;;;;;;5050619;28;20373;-42
2021/08/02 00:32:46;;;;;;;5.55;2.10;;;15.20;99.90;;;;;;5049035;28;20021;-38
2021/08/02 00:35:12;;;;;;;2.40;1.80;;;15.20;99.90;;;;;;5051683;28;20055;-43
2021/08/02 00:37:55;;;;;;;4.07;2.08;;;15.20;99.90;;;;;;5049614;28;20598;-43
2021/08/02 00:40:49;;;;;;;3.53;1.70;;;15.20;99.90;;;;;;5050939;28;20104;-41
2021/08/02 00:43:46;;;;;;;4.25;2.00;;;15.20;99.90;;;;;;5051061;28;20017;-42
2021/08/02 00:46:13;;;;;;;4.55;2.15;;;15.30;99.90;;;;;;5031009;28;20115;-42
2021/08/02 00:49:01;;;;;;;4.38;2.38;;;15.30;99.90;;;;;;5044864;28;20029;-43
2021/08/02 00:51:30;;;;;;;4.47;2.72;;;15.20;99.90;;;;;;5030120;28;20033;-40
2021/08/02 00:53:59;;;;;;;3.38;2.20;;;15.20;99.90;;;;;;5046166;28;20028;-41
2021/08/02 00:56:29;;;;;;;2.42;2.00;;;15.20;99.90;;;;;;5050919;28;20028;-44
2021/08/02 00:58:56;;;;;;;3.97;2.20;;;15.20;99.90;;;;;;5049945;28;20029;-43
2021/08/02 01:01:23;;;;;;;5.85;2.40;;;15.20;99.90;;;;;;5050166;28;20021;-42
2021/08/02 01:03:49;;;;;;;6.45;2.30;;;15.30;99.90;;;;;;5050041;28;20543;-42
2021/08/02 01:06:18;;;;;;;3.78;2.13;;;15.20;99.90;;;;;;5049969;28;20139;-41
2021/08/02 01:08:47;;;;;;;3.42;2.30;;;15.20;99.90;;;;;;5049941;28;20021;-41
2021/08/02 01:11:16;;;;;;;3.80;2.08;;;15.20;99.90;;;;;;5050589;28;20044;-45
2021/08/02 01:13:44;;;;;;;5.47;2.70;;;15.20;99.90;;;;;;5049433;28;20387;-42
2021/08/02 01:16:10;;;;;;;6.30;2.65;;;15.20;99.90;;;;;;5050292;28;20049;-42
2021/08/02 01:18:38;;;;;;;4.45;2.17;;;15.20;99.90;;;;;;5049336;28;20122;-43
2021/08/02 01:21:09;;;;;;;3.80;2.65;;;15.10;99.90;;;;;;5050109;28;20376;-43
2021/08/02 01:23:36;;;;;;;6.93;2.45;;;15.10;99.90;;;;;;5049242;28;20051;-42
2021/08/02 01:26:04;;;;;;;2.97;1.90;;;15.10;99.90;;;;;;5050302;28;20070;-42
2021/08/02 01:28:29;;;;;;;3.17;2.15;;;15.10;99.90;;;;;;5049139;28;20035;-43
2021/08/02 01:30:57;;;;;;;3.80;1.98;;;15.10;99.90;;;;;;5050029;28;20024;-43
2021/08/02 01:33:33;;;;;;;5.47;2.10;;;15.10;99.90;;;;;;5049396;28;20516;-43
2021/08/02 01:36:05;;;;;;;3.47;2.17;;;15.10;99.90;;;;;;5048473;28;20059;-42
2021/08/02 01:38:32;;;;;;;3.35;2.08;;;15.20;99.90;;;;;;5049555;28;20051;-38
2021/08/02 01:40:58;;;;;;;3.72;2.13;;;15.20;99.90;;;;;;5048700;28;20278;-42
2021/08/02 01:43:24;;;;;;;8.23;2.28;;;15.20;99.90;;;;;;5048958;28;20116;-41
2021/08/02 01:46:07;;;;;;;4.40;2.17;;;15.20;99.90;;;;;;5049499;28;20475;-42
2021/08/02 01:49:01;;;;;;;3.65;2.20;;;15.20;99.90;;;;;;5048728;28;20049;-42
2021/08/02 01:51:49;;;;;;;4.82;2.10;;;15.20;99.90;;;;;;5047907;28;20047;-41
2021/08/02 01:54:42;;;;;;;5.90;2.20;;;15.20;99.90;;;;;;5049782;28;20079;-41
2021/08/02 01:57:45;;;;;;;3.25;1.83;;;15.20;99.90;;;;;;5048761;28;20383;-40
2021/08/02 02:00:23;;;;;;;5.57;2.10;;;15.20;99.90;;;;;;5038214;28;20820;-41
2021/08/02 02:03:07;;;;;;;4.65;3.08;;;15.20;99.90;;;;;;5048890;28;20027;-41
2021/08/02 02:05:38;;;;;;;3.70;2.20;;;15.20;99.90;;;;;;5048520;28;20392;-42
2021/08/02 02:08:10;;;;;;;4.28;2.50;;;15.20;99.90;;;;;;5049413;28;20021;-41
2021/08/02 02:10:40;;;;;;;2.72;2.00;;;15.10;99.90;;;;;;5048469;28;20163;-41
2021/08/02 02:13:14;;;;;;;5.90;2.28;;;15.10;99.90;;;;;;5049535;28;20115;-41
2021/08/02 02:15:42;;;;;;;4.47;2.22;;;15.10;99.90;;;;;;5048358;28;20021;-43
2021/08/02 02:18:09;;;;;;;3.35;2.10;;;15.20;99.90;;;;;;5048903;28;20083;-41
2021/08/02 02:20:36;;;;;;;3.88;2.30;;;15.20;99.90;;;;;;5048228;28;20021;-40
2021/08/02 02:23:10;;;;;;;3.58;2.58;;;15.10;99.90;;;;;;5048873;28;20120;-39
2021/08/02 02:25:40;;;;;;;4.78;2.22;;;15.10;99.90;;;;;;5048513;28;20023;-39
2021/08/02 02:28:15;;;;;;;2.53;2.13;;;15.10;99.90;;;;;;5048612;28;20491;-39
2021/08/02 02:30:42;;;;;;;4.05;2.20;;;15.10;99.90;;;;;;5047834;28;20036;-42
2021/08/02 02:33:12;;;;;;;6.05;2.40;;;15.10;99.90;;;;;;5048720;28;20033;-41
2021/08/02 02:35:40;;;;;;;4.40;2.72;;;15.10;99.90;;;;;;5048009;28;20049;-44
2021/08/02 02:38:16;;;;;;;4.70;2.70;;;15.20;99.90;;;;;;5048483;28;20055;-41
2021/08/02 02:40:43;;;;;;;4.72;2.40;;;15.20;99.90;;;;;;5048582;28;20499;-43
2021/08/02 02:43:11;;;;;;;3.63;2.00;;;15.20;99.90;;;;;;5048676;28;20407;-40
2021/08/02 02:45:38;;;;;;;3.60;2.28;;;15.20;99.90;;;;;;5048137;28;20046;-40
2021/08/02 02:48:05;;;;;;;4.22;2.20;;;15.20;99.90;;;;;;5048805;28;20037;-41
2021/08/02 02:50:33;;;;;;;4.40;2.03;;;15.20;99.90;;;;;;5048314;28;20469;-42
2021/08/02 02:53:00;;;;;;;3.00;2.20;;;15.20;99.90;;;;;;5047950;28;20037;-42
2021/08/02 02:55:26;;;;;;;3.17;1.83;;;15.20;99.90;;;;;;5048314;28;20021;-43
2021/08/02 02:57:52;;;;;;;5.88;2.20;;;15.20;99.90;;;;;;5048028;28;20025;-43
2021/08/02 03:00:19;;;;;;;4.30;2.30;;;15.20;99.90;;;;;;5048238;28;20044;-43
2021/08/02 03:02:49;;;;;;;2.90;1.95;;;15.20;99.90;;;;;;5048083;28;20051;-40
2021/08/02 03:05:16;;;;;;;3.78;1.90;;;15.20;99.90;;;;;;5048369;28;20025;-40
2021/08/02 03:07:43;;;;;;;3.80;2.00;;;15.20;99.90;;;;;;5047680;28;20017;-41
2021/08/02 03:10:11;;;;;;;2.83;1.70;;;15.20;99.90;;;;;;5048706;28;20028;-40
2021/08/02 03:12:36;;;;;;;5.43;1.95;;;15.30;99.90;;;;;;5047507;28;20036;-40
2021/08/02 03:15:03;;;;;;;3.60;1.70;;;15.30;99.90;;;;;;5048839;28;20013;-41
2021/08/02 03:17:29;;;;;;;3.78;1.85;;;15.30;99.90;;;;;;5047681;28;20033;-41
2021/08/02 03:19:55;;;;;;;2.88;2.03;;;15.30;99.90;;;;;;5047693;28;20017;-41
2021/08/02 03:22:36;;;;;;;4.05;1.80;;;15.30;99.90;;;;;;5048710;28;20140;-39
2021/08/02 03:25:33;;;;;;;6.03;2.70;;;15.30;99.90;;;;;;5048755;28;20025;-40
2021/08/02 03:28:21;;;;;;;2.72;1.55;;;15.30;99.90;;;;;;5047836;28;20021;-37
2021/08/02 03:30:50;;;;;;;3.90;1.90;;;15.30;99.90;;;;;;5037313;28;20072;-40
2021/08/02 03:33:33;;;;;;;3.42;1.73;;;15.30;99.90;;;;;;5048476;28;20021;-41
2021/08/02 03:36:04;;;;;;;3.55;1.88;;;15.30;99.90;;;;;;5047879;28;20045;-39
2021/08/02 03:38:31;;;;;;;2.75;1.80;;;15.30;99.90;;;;;;5047638;28;20087;-41
2021/08/02 03:40:58;;;;;;;4.50;1.92;;;15.20;99.90;;;;;;5047399;28;20028;-43
2021/08/02 03:43:25;;;;;;;4.10;1.88;;;15.30;99.90;;;;;;5047685;28;20100;-40
2021/08/02 03:45:52;;;;;;;3.92;1.90;;;15.30;99.90;;;;;;5047793;28;20607;-40
2021/08/02 03:48:20;;;;;;;4.88;1.88;;;15.30;99.90;;;;;;5047620;28;20033;-42
2021/08/02 03:50:46;;;;;;;3.65;1.98;;;15.30;99.90;;;;;;5047726;28;20025;-40
2021/08/02 03:53:12;;;;;;;4.53;1.85;;;15.20;99.90;;;;;;5047713;28;20104;-41
2021/08/02 03:55:39;;;;;;;3.15;1.80;;;15.20;99.90;;;;;;5047705;28;20115;-40
2021/08/02 03:58:08;;;;;;;2.42;1.70;;;15.20;99.90;;;;;;5048099;28;20049;-41
2021/08/02 04:00:34;;;;;;;4.13;1.90;;;15.20;99.90;;;;;;5047789;28;20029;-40
2021/08/02 04:02:59;;;;;;;1.92;1.42;;;15.20;99.90;;;;;;5047835;28;20036;-41
2021/08/02 04:05:25;;;;;;;4.43;1.83;;;15.10;99.90;;;;;;5047622;28;20468;-39
2021/08/02 04:07:52;;;;;;;2.78;1.55;;;15.10;99.90;;;;;;5050423;28;20092;-41
2021/08/02 04:10:20;;;;;;;2.47;1.70;;;15.20;99.90;;;;;;5050739;28;20024;-41
2021/08/02 04:12:46;;;;;;;3.60;1.60;;;15.10;99.90;;;;;;5050627;28;20048;-42
2021/08/02 04:15:16;;;;;;;3.13;1.40;;;15.10;99.90;;;;;;5051329;28;20025;-44
2021/08/02 04:17:42;;;;;;;2.85;1.48;;;15.20;99.90;;;;;;5050385;28;20029;-42
2021/08/02 04:20:09;;;;;;;3.55;1.58;;;15.10;99.90;;;;;;5051396;28;20480;-41
2021/08/02 04:22:36;;;;;;;3.10;1.33;;;15.10;99.90;;;;;;5050200;28;20037;-42
2021/08/02 04:25:01;;;;;;;3.22;1.30;;;15.10;99.90;;;;;;5051120;28;20013;-41
2021/08/02 04:27:28;;;;;;;2.08;1.40;;;15.00;99.90;;;;;;5050723;28;20028;-42
2021/08/02 04:29:54;;;;;;;4.20;1.80;;;14.90;99.90;;;;;;5050151;28;20075;-41
2021/08/02 04:32:22;;;;;;;4.85;1.77;;;14.90;99.90;;;;;;5050849;28;20029;-40
2021/08/02 04:34:49;;;;;;;7.88;1.77;;;14.90;99.90;;;;;;5050731;28;20024;-42
2021/08/02 04:37:15;;;;;;;4.35;1.63;;;14.90;99.90;;;;;;5050504;28;20041;-40
2021/08/02 04:39:49;;;;;;;5.30;1.77;;;14.90;99.90;;;;;;5050759;28;20033;-40
2021/08/02 04:42:17;;;;;;;3.25;1.80;;;14.90;99.90;;;;;;5050610;28;20109;-42
2021/08/02 04:44:48;;;;;;;4.07;1.92;;;15.00;99.90;;;;;;5049751;28;20029;-41
2021/08/02 04:47:16;;;;;;;4.18;1.85;;;15.00;99.90;;;;;;5050383;28;20020;-42
2021/08/02 04:49:41;;;;;;;4.50;2.00;;;15.00;99.90;;;;;;5050412;28;20084;-41
2021/08/02 04:52:07;;;;;;;4.22;2.30;;;15.00;99.90;;;;;;5049953;28;20099;-41
2021/08/02 04:54:32;;;;;;;5.25;1.80;;;15.00;99.90;;;;;;5050195;28;20021;-40
2021/08/02 04:56:58;;;;;;;3.83;1.50;;;15.00;99.90;;;;;;5050120;28;20107;-41
2021/08/02 04:59:23;;;;;;;2.60;1.60;;;15.00;99.90;;;;;;5050084;28;20112;-42
2021/08/02 05:01:49;;;;;;;3.15;1.77;;;15.00;99.90;;;;;;5051206;28;20064;-42
2021/08/02 05:04:14;;;;;;;2.42;1.60;;;14.90;99.90;;;;;;5050844;28;20461;-42
2021/08/02 05:06:40;;;;;;;3.63;1.55;;;14.90;99.90;;;;;;5049319;28;20028;-40
2021/08/02 05:09:06;;;;;;;2.88;1.40;;;14.90;99.90;;;;;;5051005;28;20480;-42
2021/08/02 05:11:31;;;;;;;2.65;1.50;;;14.90;99.90;;;;;;5049787;28;20096;-42
2021/08/02 05:13:59;;;;;;;2.00;1.40;;;14.90;99.90;;;;;;5050061;28;20115;-43
2021/08/02 05:16:27;;;;;;;2.60;1.42;;;14.90;99.90;;;;;;5049556;28;20021;-43
2021/08/02 05:18:56;;;;;;;4.18;1.60;;;14.80;99.90;;;;;;5049265;28;20485;-41
2021/08/02 05:21:22;;;;;;;3.00;1.60;;;14.90;99.90;;;;;;5049378;28;20029;-43
2021/08/02 05:23:49;;;;;;;3.22;1.70;;;14.80;99.90;;;;;;5050129;28;20112;-40
2021/08/02 05:26:17;;;;;;;4.95;1.95;;;14.80;99.90;;;;;;5049935;28;20029;-42
2021/08/02 05:28:43;;;;;;;4.90;1.63;;;14.90;99.90;;;;;;5047665;28;20427;-42
2021/08/02 05:31:08;;;;;;;9.02;3.25;;;14.80;99.90;;;;;;5049813;28;20041;-41
2021/08/02 05:33:38;;;;;;;4.13;1.80;;;14.80;99.90;;;;;;5048139;28;20107;-41
2021/08/02 05:36:04;;;;;;;6.35;2.00;;;14.80;99.90;;;;;;5049488;28;20061;-42
2021/08/02 05:38:33;;;;;;;2.90;2.03;;;14.80;99.90;;;;;;5049573;28;20435;-42
2021/08/02 05:41:01;;;;;;;4.93;1.95;;;14.80;99.90;;;;;;5049265;28;20032;-41
2021/08/02 05:43:27;;;;;;;5.10;2.00;;;14.80;99.90;;;;;;5049057;28;20035;-41
2021/08/02 05:45:54;;;;;;;3.70;1.80;;;14.80;99.90;;;;;;5049570;28;20032;-37
2021/08/02 05:48:20;;;;;;;3.20;1.80;;;14.80;99.90;;;;;;5049388;28;20029;-42
2021/08/02 05:50:46;;;;;;;2.63;1.60;;;14.90;99.90;;;;;;5049545;28;20032;-41
2021/08/02 05:53:11;;;;;;;4.20;1.75;;;14.90;99.90;;;;;;5050256;28;20033;-40
2021/08/02 05:55:40;;;;;;;5.78;1.45;;;15.10;99.90;;;;;;5048840;28;20499;-42
2021/08/02 05:58:10;;;;;;;4.53;1.70;;;15.20;99.90;;;;;;5049441;28;20089;-42
2021/08/02 06:00:35;;;;;;;2.47;1.30;;;15.30;99.90;;;;;;5049208;28;20043;-41
2021/08/02 06:03:05;;;;;;;2.03;1.70;;;15.50;99.90;;;;;;5049436;28;20024;-41
2021/08/02 06:05:30;;;;;;;4.00;1.90;;;15.60;99.90;;;;;;5048625;28;20052;-42
2021/08/02 06:07:56;;;;;;;4.13;1.65;;;15.70;99.90;;;;;;5048485;28;20090;-41
2021/08/02 06:10:21;;;;;;;3.83;1.63;;;15.70;99.90;;;;;;5049659;28;20028;-41
2021/08/02 06:12:47;;;;;;;5.20;1.65;;;15.80;99.90;;;;;;5049199;28;20017;-42
2021/08/02 06:15:15;;;;;;;4.43;1.67;;;15.80;99.90;;;;;;5048646;28;20128;-42
2021/08/02 06:17:40;;;;;;;2.80;1.40;;;15.90;99.90;;;;;;5048859;28;20487;-40
2021/08/02 06:20:08;;;;;;;3.05;1.50;;;15.80;99.90;;;;;;5048778;28;20025;-42
2021/08/02 06:22:34;;;;;;;3.70;1.75;;;15.80;99.90;;;;;;5048267;28;20035;-42
2021/08/02 06:25:00;;;;;;;3.80;1.70;;;15.80;99.90;;;;;;5048322;28;20052;-42
2021/08/02 06:27:30;;;;;;;5.10;1.65;;;15.70;99.90;;;;;;5048754;28;20110;-41
2021/08/02 06:29:59;;;;;;;2.42;1.48;;;15.70;99.90;;;;;;5047802;28;20132;-42
2021/08/02 06:32:25;;;;;;;2.75;1.63;;;15.60;99.90;;;;;;5047883;28;20033;-42
2021/08/02 06:34:51;;;;;;;3.78;1.77;;;15.60;99.90;;;;;;5049083;28;20031;-41
2021/08/02 06:37:17;;;;;;;2.28;1.35;;;15.60;99.90;;;;;;5048522;28;20507;-42
2021/08/02 06:39:43;;;;;;;5.82;1.50;;;15.60;99.90;;;;;;5048295;28;20021;-39
2021/08/02 06:42:13;;;;;;;2.13;1.10;;;15.70;99.90;;;;;;5048853;28;20017;-42
2021/08/02 06:44:42;;;;;;;4.05;1.20;;;15.70;99.90;;;;;;5047569;28;20033;-41
2021/08/02 06:47:08;;;;;;;4.03;1.30;;;15.70;99.90;;;;;;5048762;28;20606;-42
2021/08/02 06:49:33;;;;;;;4.65;1.30;;;15.70;99.90;;;;;;5048220;28;20036;-41
2021/08/02 06:51:59;;;;;;;4.07;1.30;;;15.80;99.90;;;;;;5047740;28;20033;-42
2021/08/02 06:54:25;;;;;;;3.97;1.42;;;15.80;99.90;;;;;;5048584;28;20441;-42
2021/08/02 06:56:50;;;;;;;2.28;1.02;;;15.90;99.90;;;;;;5048442;28;20447;-42
2021/08/02 06:59:16;;;;;;;4.40;1.40;;;15.90;99.90;;;;;;5047103;28;20021;-42
2021/08/02 07:01:46;;;;;;;3.65;1.25;;;15.90;99.90;;;;;;5048240;28;20120;-42
2021/08/02 07:04:14;;;;;;;4.28;1.23;;;16.00;99.90;;;;;;5047936;28;20040;-41
2021/08/02 07:06:41;;;;;;;3.92;1.10;;;16.00;99.90;;;;;;5047622;28;20472;-42
2021/08/02 07:09:10;;;;;;;1.83;1.08;;;16.10;99.90;;;;;;5048399;28;20025;-42
2021/08/02 07:11:36;;;;;;;4.15;1.48;;;16.10;99.90;;;;;;5047240;28;20029;-42
2021/08/02 07:14:02;;;;;;;2.28;1.17;;;16.20;99.90;;;;;;5047938;28;20387;-42
2021/08/02 07:16:32;;;;;;;4.95;1.30;;;16.20;99.90;;;;;;5048071;28;20015;-42
2021/08/02 07:18:58;;;;;;;3.25;1.23;;;16.30;99.90;;;;;;5047964;28;20036;-41
2021/08/02 07:21:25;;;;;;;2.10;1.20;;;16.40;99.90;;;;;;5047755;28;20027;-43
2021/08/02 07:23:50;;;;;;;3.65;1.50;;;16.50;99.90;;;;;;5048811;28;20095;-42
2021/08/02 07:26:16;;;;;;;4.10;1.40;;;16.60;99.90;;;;;;5047331;28;20401;-42
2021/08/02 07:28:43;;;;;;;2.30;1.20;;;16.70;99.90;;;;;;5048032;28;20079;-42
2021/08/02 07:31:12;;;;;;;2.35;1.27;;;16.80;99.90;;;;;;5048014;28;21011;-43
2021/08/02 07:33:39;;;;;;;1.58;0.88;;;16.90;99.90;;;;;;5048416;28;20377;-42
2021/08/02 07:36:04;;;;;;;5.68;1.20;;;17.00;99.90;;;;;;5047590;28;20070;-40
2021/08/02 07:38:30;;;;;;;5.47;1.30;;;17.10;99.90;;;;;;5048140;28;20384;-43
2021/08/02 07:40:56;;;;;;;2.30;0.98;;;17.20;99.90;;;;;;5048258;28;20025;-43
2021/08/02 07:43:21;;;;;;;2.20;1.00;;;17.10;99.90;;;;;;5051839;28;20071;-43
2021/08/02 07:45:47;;;;;;;1.55;1.17;;;17.10;99.90;;;;;;5052157;28;20369;-42
2021/08/02 07:48:12;;;;;;;4.50;1.20;;;17.10;99.90;;;;;;5051287;28;20117;-42
2021/08/02 07:50:38;;;;;;;3.47;1.10;;;17.00;99.90;;;;;;5051559;28;20122;-43
2021/08/02 07:53:04;;;;;;;3.63;1.25;;;17.00;99.80;;;;;;5051389;28;20021;-45
2021/08/02 07:55:29;;;;;;;2.45;1.10;;;17.00;99.90;;;;;;5029966;28;20061;-44
2021/08/02 07:57:55;;;;;;;2.05;0.90;;;17.10;99.90;;;;;;5045398;28;20076;-43
2021/08/02 08:00:21;;;;;;;1.23;0.80;;;17.30;99.90;;;;;;5051736;28;20372;-41
2021/08/02 08:02:50;;;;;;;2.38;0.95;;;17.40;99.90;;;;;;5051223;28;20120;-42
2021/08/02 08:05:16;;;;;;;2.45;0.90;;;17.70;99.90;;;;;;5049690;28;20116;-42
2021/08/02 08:07:43;;;;;;;3.63;0.95;;;17.80;99.90;;;;;;5049768;28;20389;-43
2021/08/02 08:10:12;;;;;;;3.15;1.05;;;17.90;99.90;;;;;;5051642;28;20041;-41
2021/08/02 08:12:38;;;;;;;1.65;1.17;;;17.90;99.90;;;;;;5050886;28;20058;-42
2021/08/02 08:15:08;;;;;;;5.63;1.35;;;18.00;98.50;;;;;;5050684;28;20037;-42
2021/08/02 08:17:33;;;;;;;3.58;1.33;;;17.90;97.40;;;;;;5050762;28;20040;-40
2021/08/02 08:19:59;;;;;;;1.60;1.05;;;17.90;98.20;;;;;;5051372;28;20503;-42
2021/08/02 08:22:27;;;;;;;3.63;1.45;;;18.00;98.50;;;;;;5049936;28;20037;-42
2021/08/02 08:24:53;;;;;;;1.98;1.20;;;18.20;98.70;;;;;;5051456;28;20535;-42
2021/08/02 08:27:19;;;;;;;2.70;1.25;;;18.30;98.60;;;;;;5051258;28;20021;-42
2021/08/02 08:29:44;;;;;;;2.30;1.00;;;18.40;98.50;;;;;;5050531;28;20369;-43
2021/08/02 08:32:10;;;;;;;4.10;1.55;;;18.50;98.50;;;;;;5051317;28;20123;-42
2021/08/02 08:34:38;;;;;;;4.00;1.10;;;18.60;97.80;;;;;;5050034;28;20052;-42
2021/08/02 08:37:04;;;;;;;3.35;0.90;;;18.70;97.70;;;;;;5050374;28;20106;-42
2021/08/02 08:39:30;;;;;;;3.35;1.23;;;18.70;97.50;;;;;;5050974;28;20017;-43
2021/08/02 08:41:58;;;;;;;1.45;1.05;;;18.80;97.80;;;;;;5051210;28;20100;-43
2021/08/02 08:44:27;;;;;;;2.40;0.82;;;18.90;97.90;;;;;;5049971;28;20029;-42
2021/08/02 08:46:53;;;;;;;2.38;1.13;;;18.80;97.80;;;;;;5050832;28;20029;-43
2021/08/02 08:49:21;;;;;;;1.80;0.90;;;18.80;97.60;;;;;;5050328;28;20458;-43
2021/08/02 08:51:47;;;;;;;2.28;0.90;;;18.70;97.80;;;;;;5050276;28;20017;-42
2021/08/02 08:54:13;;;;;;;2.58;0.98;;;18.70;97.60;;;;;;5049852;28;20388;-38
2021/08/02 08:56:39;;;;;;;4.40;0.85;;;18.60;97.80;;;;;;5049926;28;20385;-40
2021/08/02 08:59:05;;;;;;;2.40;1.00;;;18.50;97.90;;;;;;5050132;28;20025;-42
2021/08/02 09:01:31;;;;;;;2.17;1.02;;;18.50;97.70;;;;;;5050304;28;20028;-44
2021/08/02 09:03:58;;;;;;;3.17;1.10;;;18.40;97.50;;;;;;5049966;28;20056;-43
2021/08/02 09:06:24;;;;;;;2.65;1.15;;;18.40;97.80;;;;;;5049822;28;20033;-43
2021/08/02 09:08:50;;;;;;;3.63;1.10;;;18.40;97.90;;;;;;5050377;28;20021;-43
2021/08/02 09:11:18;;;;;;;2.65;0.80;;;18.50;98.00;;;;;;5049460;28;20024;-42
2021/08/02 09:13:44;;;;;;;1.08;0.90;;;18.50;98.10;;;;;;5050423;28;20024;-44
2021/08/02 09:16:15;;;;;;;1.27;0.90;;;18.50;97.30;;;;;;5050695;28;20091;-43
2021/08/02 09:18:44;;;;;;;1.73;0.90;;;18.60;97.70;;;;;;5049709;28;20043;-43
2021/08/02 09:21:11;;;;;;;1.08;0.90;;;18.70;97.80;;;;;;5049735;28;20025;-44
2021/08/02 09:23:55;;;;;;;2.65;1.10;;;18.90;97.70;;;;;;5049548;28;20036;-42
2021/08/02 09:26:36;;;;;;;1.65;0.90;;;19.10;97.50;;;;;;5048642;28;20025;-43
2021/08/02 09:29:06;;;;;;;1.65;1.00;;;19.30;97.50;;;;;;5050607;28;20136;-42
2021/08/02 09:31:39;;;;;;;1.25;0.90;;;19.50;97.40;;;;;;5049789;28;20017;-42
2021/08/02 09:34:08;;;;;;;2.75;1.10;;;19.70;97.30;;;;;;5049971;28;20036;-43
2021/08/02 09:36:42;;;;;;;2.47;1.15;;;19.80;97.20;;;;;;5049507;28;20408;-42
2021/08/02 09:39:10;;;;;;;2.50;1.13;;;20.00;96.90;;;;;;5049604;28;20111;-42
2021/08/02 09:41:36;;;;;;;1.05;0.95;;;20.00;96.90;;;;;;5049580;28;20021;-42
2021/08/02 09:44:04;;;;;;;2.55;1.08;;;20.10;97.00;;;;;;5050321;28;20112;-43
2021/08/02 09:46:29;;;;;;;1.48;0.93;;;20.20;96.90;;;;;;5048360;28;20512;-41
2021/08/02 09:49:03;;;;;;;2.47;0.90;;;20.20;97.00;;;;;;5049800;28;20100;-43
2021/08/02 09:51:41;;;;;;;1.27;0.90;;;20.20;96.90;;;;;;5049208;28;20471;-43
2021/08/02 09:54:07;;;;;;;1.80;0.82;;;20.20;97.00;;;;;;5049213;28;20375;-43
2021/08/02 09:56:32;;;;;;;4.38;1.30;;;20.10;96.70;;;;;;5049319;28;20508;-42
2021/08/02 09:58:58;;;;;;;2.58;1.00;;;20.00;96.80;;;;;;5049590;28;20029;-43
2021/08/02 10:01:24;;;;;;;1.88;1.08;;;19.90;97.00;;;;;;5048410;28;20055;-41
2021/08/02 10:03:49;;;;;;;1.40;1.00;;;19.80;97.10;;;;;;5050282;28;20025;-42
2021/08/02 10:06:15;;;;;;;1.25;0.70;;;19.80;97.20;;;;;;5049310;28;20021;-41
2021/08/02 10:08:43;;;;;;;1.60;1.00;;;19.70;97.20;;;;;;5048984;28;20028;-42
2021/08/02 10:11:09;;;;;;;3.08;0.98;;;19.70;97.40;;;;;;5050131;28;20487;-43
2021/08/02 10:13:40;;;;;;;3.60;1.10;;;19.70;96.70;;;;;;5048739;28;20520;-42
2021/08/02 10:16:08;;;;;;;2.42;1.13;;;19.50;95.30;;;;;;5048728;28;20109;-42
2021/08/02 10:18:34;;;;;;;1.80;0.90;;;19.50;95.70;;;;;;5047871;28;20060;-42
2021/08/02 10:21:12;;;;;;;1.92;1.10;;;19.50;96.10;;;;;;5050020;28;20021;-41
2021/08/02 10:23:38;;;;;;;3.35;1.20;;;19.50;94.10;;;;;;5048123;28;20039;-42
2021/08/02 10:26:18;;;;;;;3.78;1.10;;;19.60;93.30;;;;;;5049355;28;20428;-42
2021/08/02 10:28:57;;;;;;;2.53;0.95;;;19.50;93.80;;;;;;5047559;28;20032;-43
2021/08/02 10:31:26;;;;;;;1.95;1.08;;;19.60;93.90;;;;;;5048859;28;20037;-42
2021/08/02 10:33:52;;;;;;;3.42;0.80;;;19.70;94.20;;;;;;5048721;28;20029;-42
2021/08/02 10:36:22;;;;;;;2.90;1.13;;;19.90;94.40;;;;;;5047948;28;20053;-42
2021/08/02 10:38:49;;;;;;;4.72;0.98;;;20.10;94.30;;;;;;5048517;28;20043;-43
2021/08/02 10:41:45;;;;;;;2.30;0.90;;;20.30;94.30;;;;;;5049803;28;20042;-42
2021/08/02 10:44:14;;;;;;;1.40;0.90;;;20.50;94.40;;;;;;5048069;28;20048;-43
2021/08/02 10:46:39;;;;;;;1.88;1.00;;;20.60;94.20;;;;;;5048588;28;20075;-42
2021/08/02 10:49:14;;;;;;;2.53;1.20;;;20.70;93.90;;;;;;5048053;28;20590;-40
2021/08/02 10:51:51;;;;;;;2.08;0.80;;;20.70;92.30;;;;;;5050545;28;20033;-43
2021/08/02 10:54:18;;;;;;;2.20;0.98;;;20.60;92.40;;;;;;5045907;28;20196;-42
2021/08/02 10:56:48;;;;;;;1.85;0.75;;;20.60;92.50;;;;;;5046869;28;20025;-43
2021/08/02 10:59:21;;;;;;;4.25;1.15;;;20.60;92.90;;;;;;5048510;28;20033;-41
2021/08/02 11:02:07;;;;;;;3.80;1.33;;;20.70;92.70;;;;;;5028771;28;20370;-43
2021/08/02 11:04:33;;;;;;;2.88;1.00;;;20.70;91.40;;;;;;5045532;28;20029;-42
2021/08/02 11:06:58;;;;;;;4.20;1.27;;;20.70;92.10;;;;;;5049358;28;20029;-43
2021/08/02 11:09:31;;;;;;;4.68;0.90;;;20.70;92.40;;;;;;5047991;28;20087;-43
2021/08/02 11:12:11;;;;;;;2.10;0.70;;;20.80;92.50;;;;;;5048631;28;20476;-41
2021/08/02 11:14:53;;;;;;;3.67;1.10;;;20.80;92.40;;;;;;5048066;28;20031;-42
2021/08/02 11:17:24;;;;;;;2.50;0.90;;;20.80;91.90;;;;;;5030143;28;20041;-40
2021/08/02 11:20:03;;;;;;;1.67;0.80;;;20.70;91.90;;;;;;5049015;28;20017;-43
2021/08/02 11:22:29;;;;;;;3.78;0.90;;;20.60;92.10;;;;;;5032265;28;20037;-42
2021/08/02 11:24:57;;;;;;;3.65;1.17;;;20.50;91.50;;;;;;5046997;28;20388;-42
2021/08/02 11:27:23;;;;;;;2.72;1.00;;;20.50;92.20;;;;;;5052031;28;20124;-43
2021/08/02 11:29:51;;;;;;;1.67;0.80;;;20.50;91.80;;;;;;5052442;28;20028;-43
2021/08/02 11:32:19;;;;;;;2.72;0.93;;;20.40;91.10;;;;;;5048597;28;20072;-43
2021/08/02 11:34:51;;;;;;;4.13;1.13;;;20.40;90.70;;;;;;5054345;28;20036;-43
2021/08/02 11:37:22;;;;;;;3.33;1.00;;;20.50;90.60;;;;;;5051256;28;20049;-41
2021/08/02 11:39:59;;;;;;;1.83;0.80;;;20.50;90.00;;;;;;5050991;28;20461;-41
2021/08/02 11:42:28;;;;;;;1.88;1.27;;;20.50;88.50;;;;;;5050117;28;20790;-42
2021/08/02 11:44:56;;;;;;;2.10;0.70;;;20.50;89.70;;;;;;5052623;28;20392;-42
2021/08/02 11:47:26;;;;;;;2.88;0.85;;;20.50;90.10;;;;;;5050934;28;20025;-40
2021/08/02 11:49:54;;;;;;;2.28;0.80;;;20.60;90.30;;;;;;5051939;28;20048;-42
2021/08/02 11:52:23;;;;;;;2.58;0.90;;;20.80;90.10;;;;;;5052552;28;20029;-42
2021/08/02 11:55:01;;;;;;;2.92;0.93;;;20.90;87.20;;;;;;5051528;28;20021;-42
2021/08/02 11:57:27;;;;;;;1.52;0.80;;;20.90;87.00;;;;;;5042169;28;20041;-42
2021/08/02 12:00:13;;;;;;;2.90;1.05;;;21.00;85.30;;;;;;5051713;28;20017;-42
2021/08/02 12:02:43;;;;;;;2.45;1.10;;;21.10;83.40;;;;;;5041799;28;20064;-42
2021/08/02 12:05:24;;;;;;;1.80;0.90;;;21.00;80.80;;;;;;5051918;28;20017;-43
2021/08/02 12:08:10;;;;;;;0.80;0.77;;;20.90;83.60;;;;;;5042689;28;20465;-42
2021/08/02 12:10:36;;;;;;;1.38;0.93;;;20.90;84.50;;;;;;5051365;28;20086;-42
2021/08/02 12:13:08;;;;;;;1.25;0.82;;;21.00;84.80;;;;;;5052692;28;20017;-41
2021/08/02 12:15:34;;;;;;;1.58;0.75;;;21.10;85.70;;;;;;5050575;28;20255;-41
2021/08/02 12:18:00;;;;;;;1.52;1.13;;;21.20;85.80;;;;;;5052545;28;20275;-42
2021/08/02 12:20:37;;;;;;;2.22;0.80;;;21.40;86.10;;;;;;5050823;28;20503;-41
2021/08/02 12:23:04;;;;;;;1.45;0.85;;;21.50;86.10;;;;;;5051544;28;20086;-42
2021/08/02 12:25:38;;;;;;;2.22;0.80;;;21.70;85.40;;;;;;5051064;28;20436;-42
2021/08/02 12:28:06;;;;;;;1.77;0.80;;;21.80;84.30;;;;;;5051632;28;20033;-41
2021/08/02 12:30:39;;;;;;;2.58;0.90;;;21.80;84.40;;;;;;5050892;28;20021;-42
2021/08/02 12:33:05;;;;;;;1.58;0.90;;;21.90;84.80;;;;;;5049656;28;20032;-41
2021/08/02 12:35:32;;;;;;;3.20;1.00;;;22.00;84.70;;;;;;5049775;28;20098;-40
2021/08/02 12:38:01;;;;;;;0.93;0.90;;;22.00;84.90;;;;;;5050681;28;20029;-42
2021/08/02 12:40:32;;;;;;;1.10;0.90;;;22.10;84.20;;;;;;5050289;28;20028;-42
2021/08/02 12:43:04;;;;;;;1.17;0.90;;;22.20;84.80;;;;;;5050535;28;20067;-43
2021/08/02 12:45:29;;;;;;;2.53;1.00;;;22.30;85.10;;;;;;5050238;28;20021;-42
2021/08/02 12:47:58;;;;;;;1.90;1.00;;;22.30;85.20;;;;;;5051202;28;20028;-43
2021/08/02 12:50:27;;;;;;;2.95;1.30;;;22.20;83.00;;;;;;5049590;28;20029;-43
2021/08/02 12:52:55;;;;;;;2.30;1.20;;;22.20;80.80;;;;;;5050766;28;20020;-42
2021/08/02 12:55:21;;;;;;;2.10;0.82;;;21.80;80.30;;;;;;5050747;28;20013;-43
2021/08/02 12:57:47;;;;;;;1.98;0.98;;;21.40;81.60;;;;;;5050296;28;20396;-42